Powderville, Montana
Current Conditions -  °F | °C
As of 7:51 PM on Friday 28 Nov 2014 (Local Time) from KBHK Reporting Station
Broken Clouds Broken Clouds  
Wind Chill: 51°   Ceiling: 11000
Heat Index: 51°   Visibility: 10mi
Dew Point: 31°   Wind: 14mph
Humidity: 46%   Direction: 220°SW
Pressure: 29.4"   Gusts: NA
Location:  45.76°N, 105.11°W
Report Text: KBHK 290251Z AUTO 22012KT 10SM BKN110 11/M01 A2940 RMK AO2 SLP958 T01061006 56021
Loading
Personal Weather Stations






























Interactive Weather Map New forecast layout! Learn more

10-Day Weather Forecast

Advertisements
Track Severe Weather on mobile